sensor_id;sensor_type;location;lat;lon;timestamp;P1;durP1;ratioP1;P2;durP2;ratioP2
23561;SDS011;11959;49.418;8.728;2023-12-29T00:01:45;6.88;;;5.25;;
23561;SDS011;11959;49.418;8.728;2023-12-29T00:04:11;6.63;;;5.15;;
23561;SDS011;11959;49.418;8.728;2023-12-29T00:06:40;7.25;;;5.22;;
23561;SDS011;11959;49.418;8.728;2023-12-29T00:09:06;7.32;;;5.30;;
23561;SDS011;11959;49.418;8.728;2023-12-29T00:11:32;8.48;;;5.72;;
23561;SDS011;11959;49.418;8.728;2023-12-29T00:13:59;7.13;;;5.40;;
23561;SDS011;11959;49.418;8.728;2023-12-29T00:16:24;8.25;;;5.07;;
23561;SDS011;11959;49.418;8.728;2023-12-29T00:18:52;6.78;;;5.25;;
23561;SDS011;11959;49.418;8.728;2023-12-29T00:21:18;8.60;;;5.20;;
23561;SDS011;11959;49.418;8.728;2023-12-29T00:23:44;7.22;;;5.63;;
23561;SDS011;11959;49.418;8.728;2023-12-29T00:26:09;6.05;;;5.13;;
23561;SDS011;11959;49.418;8.728;2023-12-29T00:28:35;9.32;;;5.30;;
23561;SDS011;11959;49.418;8.728;2023-12-29T00:31:05;6.75;;;5.13;;
23561;SDS011;11959;49.418;8.728;2023-12-29T00:33:31;6.68;;;5.57;;
23561;SDS011;11959;49.418;8.728;2023-12-29T00:35:57;6.95;;;5.22;;
23561;SDS011;11959;49.418;8.728;2023-12-29T00:38:23;8.25;;;5.93;;
23561;SDS011;11959;49.418;8.728;2023-12-29T00:40:49;8.25;;;5.53;;
23561;SDS011;11959;49.418;8.728;2023-12-29T00:43:15;6.53;;;5.70;;
23561;SDS011;11959;49.418;8.728;2023-12-29T00:45:40;7.93;;;5.47;;
23561;SDS011;11959;49.418;8.728;2023-12-29T00:48:06;8.43;;;5.40;;
23561;SDS011;11959;49.418;8.728;2023-12-29T00:50:32;7.30;;;5.25;;
23561;SDS011;11959;49.418;8.728;2023-12-29T00:52:57;6.60;;;5.38;;
23561;SDS011;11959;49.418;8.728;2023-12-29T00:55:23;8.02;;;5.70;;
23561;SDS011;11959;49.418;8.728;2023-12-29T00:57:48;7.63;;;5.50;;
23561;SDS011;11959;49.418;8.728;2023-12-29T01:00:14;8.90;;;6.00;;
23561;SDS011;11959;49.418;8.728;2023-12-29T01:02:40;10.25;;;5.93;;
23561;SDS011;11959;49.418;8.728;2023-12-29T01:05:06;7.57;;;5.45;;
23561;SDS011;11959;49.418;8.728;2023-12-29T01:07:31;7.43;;;5.50;;
23561;SDS011;11959;49.418;8.728;2023-12-29T01:09:59;8.20;;;5.30;;
23561;SDS011;11959;49.418;8.728;2023-12-29T01:12:24;6.95;;;5.60;;
23561;SDS011;11959;49.418;8.728;2023-12-29T01:14:50;7.38;;;5.82;;
23561;SDS011;11959;49.418;8.728;2023-12-29T01:17:16;6.90;;;5.15;;
23561;SDS011;11959;49.418;8.728;2023-12-29T01:19:41;9.68;;;5.88;;
23561;SDS011;11959;49.418;8.728;2023-12-29T01:22:07;7.85;;;5.47;;
23561;SDS011;11959;49.418;8.728;2023-12-29T01:24:33;7.47;;;5.60;;
23561;SDS011;11959;49.418;8.728;2023-12-29T01:26:58;8.93;;;5.88;;
23561;SDS011;11959;49.418;8.728;2023-12-29T01:29:24;7.82;;;5.38;;
23561;SDS011;11959;49.418;8.728;2023-12-29T01:31:49;7.00;;;5.55;;
23561;SDS011;11959;49.418;8.728;2023-12-29T01:34:15;7.22;;;5.55;;
23561;SDS011;11959;49.418;8.728;2023-12-29T01:36:41;7.95;;;5.75;;
23561;SDS011;11959;49.418;8.728;2023-12-29T01:39:06;7.25;;;5.35;;
23561;SDS011;11959;49.418;8.728;2023-12-29T01:41:32;9.13;;;5.60;;
23561;SDS011;11959;49.418;8.728;2023-12-29T01:44:17;10.38;;;5.60;;
23561;SDS011;11959;49.418;8.728;2023-12-29T01:46:50;6.38;;;5.28;;
23561;SDS011;11959;49.418;8.728;2023-12-29T01:49:19;7.13;;;5.55;;
23561;SDS011;11959;49.418;8.728;2023-12-29T01:51:50;6.45;;;5.32;;
23561;SDS011;11959;49.418;8.728;2023-12-29T01:54:20;6.93;;;5.30;;
23561;SDS011;11959;49.418;8.728;2023-12-29T01:56:47;7.68;;;5.68;;
23561;SDS011;11959;49.418;8.728;2023-12-29T01:59:15;9.30;;;6.00;;
23561;SDS011;11959;49.418;8.728;2023-12-29T02:01:41;7.55;;;5.35;;
23561;SDS011;11959;49.418;8.728;2023-12-29T02:04:08;8.75;;;5.68;;
23561;SDS011;11959;49.418;8.728;2023-12-29T02:06:36;8.88;;;5.68;;
23561;SDS011;11959;49.418;8.728;2023-12-29T02:09:03;6.53;;;5.72;;
23561;SDS011;11959;49.418;8.728;2023-12-29T02:11:29;8.18;;;6.13;;
23561;SDS011;11959;49.418;8.728;2023-12-29T02:13:55;9.70;;;5.57;;
23561;SDS011;11959;49.418;8.728;2023-12-29T02:16:23;10.73;;;6.30;;
23561;SDS011;11959;49.418;8.728;2023-12-29T02:19:04;7.22;;;6.00;;
23561;SDS011;11959;49.418;8.728;2023-12-29T02:21:38;9.48;;;5.72;;
23561;SDS011;11959;49.418;8.728;2023-12-29T02:24:04;6.15;;;5.28;;
23561;SDS011;11959;49.418;8.728;2023-12-29T02:26:30;11.50;;;5.65;;
23561;SDS011;11959;49.418;8.728;2023-12-29T02:29:00;8.15;;;5.75;;
23561;SDS011;11959;49.418;8.728;2023-12-29T02:31:30;8.52;;;6.45;;
23561;SDS011;11959;49.418;8.728;2023-12-29T02:33:56;8.68;;;5.88;;
23561;SDS011;11959;49.418;8.728;2023-12-29T02:36:25;8.68;;;5.43;;
23561;SDS011;11959;49.418;8.728;2023-12-29T02:38:51;5.78;;;5.00;;
23561;SDS011;11959;49.418;8.728;2023-12-29T02:41:17;5.75;;;4.90;;
23561;SDS011;11959;49.418;8.728;2023-12-29T02:43:42;8.60;;;4.95;;
23561;SDS011;11959;49.418;8.728;2023-12-29T02:46:08;6.70;;;5.13;;
23561;SDS011;11959;49.418;8.728;2023-12-29T02:48:34;6.13;;;4.75;;
23561;SDS011;11959;49.418;8.728;2023-12-29T02:50:59;6.68;;;5.05;;
23561;SDS011;11959;49.418;8.728;2023-12-29T02:53:25;9.07;;;5.30;;
23561;SDS011;11959;49.418;8.728;2023-12-29T02:55:50;7.28;;;4.78;;
23561;SDS011;11959;49.418;8.728;2023-12-29T02:58:16;6.85;;;4.70;;
23561;SDS011;11959;49.418;8.728;2023-12-29T03:00:41;6.00;;;4.70;;
23561;SDS011;11959;49.418;8.728;2023-12-29T03:03:07;6.85;;;4.93;;
23561;SDS011;11959;49.418;8.728;2023-12-29T03:05:33;5.45;;;4.05;;
23561;SDS011;11959;49.418;8.728;2023-12-29T03:07:58;7.32;;;5.13;;
23561;SDS011;11959;49.418;8.728;2023-12-29T03:10:24;5.60;;;4.28;;
23561;SDS011;11959;49.418;8.728;2023-12-29T03:12:50;6.53;;;4.85;;
23561;SDS011;11959;49.418;8.728;2023-12-29T03:15:15;6.75;;;5.03;;
23561;SDS011;11959;49.418;8.728;2023-12-29T03:17:41;5.82;;;4.60;;
23561;SDS011;11959;49.418;8.728;2023-12-29T03:20:06;6.25;;;4.53;;
23561;SDS011;11959;49.418;8.728;2023-12-29T03:22:33;6.93;;;4.75;;
23561;SDS011;11959;49.418;8.728;2023-12-29T03:24:58;8.70;;;5.30;;
23561;SDS011;11959;49.418;8.728;2023-12-29T03:27:24;6.47;;;4.57;;
23561;SDS011;11959;49.418;8.728;2023-12-29T03:29:49;7.38;;;4.97;;
23561;SDS011;11959;49.418;8.728;2023-12-29T03:32:15;6.15;;;4.80;;
23561;SDS011;11959;49.418;8.728;2023-12-29T03:34:42;7.47;;;5.47;;
23561;SDS011;11959;49.418;8.728;2023-12-29T03:37:08;6.40;;;4.68;;
23561;SDS011;11959;49.418;8.728;2023-12-29T03:39:34;7.75;;;5.53;;
23561;SDS011;11959;49.418;8.728;2023-12-29T03:42:00;6.88;;;4.80;;
23561;SDS011;11959;49.418;8.728;2023-12-29T03:44:26;6.90;;;4.70;;
23561;SDS011;11959;49.418;8.728;2023-12-29T03:46:52;7.68;;;5.07;;
23561;SDS011;11959;49.418;8.728;2023-12-29T03:49:17;7.38;;;5.32;;
23561;SDS011;11959;49.418;8.728;2023-12-29T03:51:44;6.93;;;5.07;;
23561;SDS011;11959;49.418;8.728;2023-12-29T03:54:11;7.32;;;4.85;;
23561;SDS011;11959;49.418;8.728;2023-12-29T03:56:37;6.50;;;4.90;;
23561;SDS011;11959;49.418;8.728;2023-12-29T03:59:02;6.78;;;5.18;;
23561;SDS011;11959;49.418;8.728;2023-12-29T04:01:28;7.95;;;5.75;;
23561;SDS011;11959;49.418;8.728;2023-12-29T04:03:53;7.95;;;5.82;;
23561;SDS011;11959;49.418;8.728;2023-12-29T04:06:19;7.32;;;5.72;;
23561;SDS011;11959;49.418;8.728;2023-12-29T04:08:45;8.07;;;6.35;;
23561;SDS011;11959;49.418;8.728;2023-12-29T04:11:11;9.55;;;5.65;;
23561;SDS011;11959;49.418;8.728;2023-12-29T04:13:37;9.20;;;6.38;;
23561;SDS011;11959;49.418;8.728;2023-12-29T04:16:02;6.60;;;5.55;;
23561;SDS011;11959;49.418;8.728;2023-12-29T04:18:28;8.45;;;6.20;;
23561;SDS011;11959;49.418;8.728;2023-12-29T04:20:54;8.70;;;5.95;;
23561;SDS011;11959;49.418;8.728;2023-12-29T04:23:20;8.40;;;6.38;;
23561;SDS011;11959;49.418;8.728;2023-12-29T04:25:45;8.68;;;6.63;;
23561;SDS011;11959;49.418;8.728;2023-12-29T04:28:11;8.32;;;6.15;;
23561;SDS011;11959;49.418;8.728;2023-12-29T04:30:37;8.55;;;6.50;;
23561;SDS011;11959;49.418;8.728;2023-12-29T04:33:02;7.25;;;5.63;;
23561;SDS011;11959;49.418;8.728;2023-12-29T04:35:28;6.90;;;5.13;;
23561;SDS011;11959;49.418;8.728;2023-12-29T04:37:54;6.13;;;4.95;;
23561;SDS011;11959;49.418;8.728;2023-12-29T04:40:20;9.15;;;5.97;;
23561;SDS011;11959;49.418;8.728;2023-12-29T04:42:45;8.90;;;6.22;;
23561;SDS011;11959;49.418;8.728;2023-12-29T04:45:11;8.02;;;5.63;;
23561;SDS011;11959;49.418;8.728;2023-12-29T04:47:37;6.38;;;5.00;;
23561;SDS011;11959;49.418;8.728;2023-12-29T04:50:03;9.13;;;5.88;;
23561;SDS011;11959;49.418;8.728;2023-12-29T04:52:29;7.18;;;5.38;;
23561;SDS011;11959;49.418;8.728;2023-12-29T04:54:54;7.88;;;5.30;;
23561;SDS011;11959;49.418;8.728;2023-12-29T04:57:20;8.50;;;6.00;;
23561;SDS011;11959;49.418;8.728;2023-12-29T04:59:46;6.95;;;5.50;;
23561;SDS011;11959;49.418;8.728;2023-12-29T05:02:11;8.30;;;4.72;;
23561;SDS011;11959;49.418;8.728;2023-12-29T05:04:37;6.35;;;4.93;;
23561;SDS011;11959;49.418;8.728;2023-12-29T05:07:04;7.85;;;5.28;;
23561;SDS011;11959;49.418;8.728;2023-12-29T05:09:30;7.65;;;4.70;;
23561;SDS011;11959;49.418;8.728;2023-12-29T05:11:56;6.72;;;5.30;;
23561;SDS011;11959;49.418;8.728;2023-12-29T05:14:21;7.72;;;5.30;;
23561;SDS011;11959;49.418;8.728;2023-12-29T05:16:47;7.28;;;4.93;;
23561;SDS011;11959;49.418;8.728;2023-12-29T05:19:13;7.18;;;5.40;;
23561;SDS011;11959;49.418;8.728;2023-12-29T05:21:38;6.47;;;4.90;;
23561;SDS011;11959;49.418;8.728;2023-12-29T05:24:04;4.97;;;4.40;;
23561;SDS011;11959;49.418;8.728;2023-12-29T05:26:31;7.63;;;5.63;;
23561;SDS011;11959;49.418;8.728;2023-12-29T05:28:56;6.03;;;4.68;;
23561;SDS011;11959;49.418;8.728;2023-12-29T05:31:22;7.00;;;4.85;;
23561;SDS011;11959;49.418;8.728;2023-12-29T05:33:48;6.63;;;4.78;;
23561;SDS011;11959;49.418;8.728;2023-12-29T05:36:13;6.18;;;4.65;;
23561;SDS011;11959;49.418;8.728;2023-12-29T05:38:39;7.50;;;4.97;;
23561;SDS011;11959;49.418;8.728;2023-12-29T05:41:06;6.38;;;4.07;;
23561;SDS011;11959;49.418;8.728;2023-12-29T05:43:32;6.35;;;4.60;;
23561;SDS011;11959;49.418;8.728;2023-12-29T05:45:58;5.38;;;4.30;;
23561;SDS011;11959;49.418;8.728;2023-12-29T05:48:24;6.95;;;4.53;;
23561;SDS011;11959;49.418;8.728;2023-12-29T05:50:50;5.97;;;4.22;;
23561;SDS011;11959;49.418;8.728;2023-12-29T05:53:16;5.82;;;4.88;;
23561;SDS011;11959;49.418;8.728;2023-12-29T05:55:42;6.35;;;4.22;;
23561;SDS011;11959;49.418;8.728;2023-12-29T05:58:09;5.50;;;4.45;;
23561;SDS011;11959;49.418;8.728;2023-12-29T06:00:35;6.10;;;4.50;;
23561;SDS011;11959;49.418;8.728;2023-12-29T06:03:01;5.22;;;4.00;;
23561;SDS011;11959;49.418;8.728;2023-12-29T06:05:29;5.47;;;4.45;;
23561;SDS011;11959;49.418;8.728;2023-12-29T06:07:55;6.57;;;4.10;;
23561;SDS011;11959;49.418;8.728;2023-12-29T06:10:21;4.93;;;4.25;;
23561;SDS011;11959;49.418;8.728;2023-12-29T06:12:47;5.68;;;4.72;;
23561;SDS011;11959;49.418;8.728;2023-12-29T06:15:13;6.65;;;4.40;;
23561;SDS011;11959;49.418;8.728;2023-12-29T06:17:41;6.13;;;4.45;;
23561;SDS011;11959;49.418;8.728;2023-12-29T06:20:08;6.60;;;4.43;;
23561;SDS011;11959;49.418;8.728;2023-12-29T06:22:38;5.90;;;4.65;;
23561;SDS011;11959;49.418;8.728;2023-12-29T06:25:08;6.43;;;4.80;;
23561;SDS011;11959;49.418;8.728;2023-12-29T06:27:35;6.15;;;4.32;;
23561;SDS011;11959;49.418;8.728;2023-12-29T06:30:04;6.35;;;4.90;;
23561;SDS011;11959;49.418;8.728;2023-12-29T06:32:30;7.03;;;4.50;;
23561;SDS011;11959;49.418;8.728;2023-12-29T06:34:56;5.53;;;4.55;;
23561;SDS011;11959;49.418;8.728;2023-12-29T06:37:22;5.43;;;4.47;;
23561;SDS011;11959;49.418;8.728;2023-12-29T06:39:47;6.88;;;4.65;;
23561;SDS011;11959;49.418;8.728;2023-12-29T06:42:13;6.03;;;4.88;;
23561;SDS011;11959;49.418;8.728;2023-12-29T06:44:38;6.28;;;4.60;;
23561;SDS011;11959;49.418;8.728;2023-12-29T06:47:04;5.95;;;5.03;;
23561;SDS011;11959;49.418;8.728;2023-12-29T06:49:31;7.97;;;4.85;;
23561;SDS011;11959;49.418;8.728;2023-12-29T06:51:59;6.55;;;5.30;;
23561;SDS011;11959;49.418;8.728;2023-12-29T06:54:24;5.65;;;4.80;;
23561;SDS011;11959;49.418;8.728;2023-12-29T06:56:50;5.90;;;4.80;;
23561;SDS011;11959;49.418;8.728;2023-12-29T06:59:16;5.05;;;4.55;;
23561;SDS011;11959;49.418;8.728;2023-12-29T07:01:43;7.43;;;4.80;;
23561;SDS011;11959;49.418;8.728;2023-12-29T07:04:09;6.78;;;4.93;;
23561;SDS011;11959;49.418;8.728;2023-12-29T07:06:35;7.28;;;4.93;;
23561;SDS011;11959;49.418;8.728;2023-12-29T07:09:01;5.93;;;4.60;;
23561;SDS011;11959;49.418;8.728;2023-12-29T07:11:28;5.45;;;4.18;;
23561;SDS011;11959;49.418;8.728;2023-12-29T07:13:54;5.45;;;4.22;;
23561;SDS011;11959;49.418;8.728;2023-12-29T07:16:19;4.95;;;3.92;;
23561;SDS011;11959;49.418;8.728;2023-12-29T07:18:45;5.53;;;3.60;;
23561;SDS011;11959;49.418;8.728;2023-12-29T07:21:11;5.43;;;3.30;;
23561;SDS011;11959;49.418;8.728;2023-12-29T07:23:38;4.80;;;3.50;;
23561;SDS011;11959;49.418;8.728;2023-12-29T07:26:04;4.95;;;3.47;;
23561;SDS011;11959;49.418;8.728;2023-12-29T07:28:31;4.05;;;3.13;;
23561;SDS011;11959;49.418;8.728;2023-12-29T07:30:57;4.38;;;3.50;;
23561;SDS011;11959;49.418;8.728;2023-12-29T07:33:23;5.57;;;3.40;;
23561;SDS011;11959;49.418;8.728;2023-12-29T07:35:49;5.32;;;3.70;;
23561;SDS011;11959;49.418;8.728;2023-12-29T07:38:15;4.50;;;3.42;;
23561;SDS011;11959;49.418;8.728;2023-12-29T07:40:41;3.67;;;2.80;;
23561;SDS011;11959;49.418;8.728;2023-12-29T07:43:06;5.75;;;3.22;;
23561;SDS011;11959;49.418;8.728;2023-12-29T07:45:32;3.70;;;2.90;;
23561;SDS011;11959;49.418;8.728;2023-12-29T07:47:58;4.38;;;3.10;;
23561;SDS011;11959;49.418;8.728;2023-12-29T07:50:24;5.90;;;3.67;;
23561;SDS011;11959;49.418;8.728;2023-12-29T07:52:49;4.82;;;3.60;;
23561;SDS011;11959;49.418;8.728;2023-12-29T07:55:15;6.13;;;3.83;;
23561;SDS011;11959;49.418;8.728;2023-12-29T07:57:43;7.82;;;3.50;;
23561;SDS011;11959;49.418;8.728;2023-12-29T08:00:09;4.50;;;3.35;;
23561;SDS011;11959;49.418;8.728;2023-12-29T08:02:35;4.72;;;3.75;;
23561;SDS011;11959;49.418;8.728;2023-12-29T08:05:01;5.40;;;3.90;;
23561;SDS011;11959;49.418;8.728;2023-12-29T08:07:27;4.93;;;3.60;;
23561;SDS011;11959;49.418;8.728;2023-12-29T08:09:53;4.13;;;3.25;;
23561;SDS011;11959;49.418;8.728;2023-12-29T08:12:18;4.75;;;3.00;;
23561;SDS011;11959;49.418;8.728;2023-12-29T08:14:44;3.40;;;2.92;;
23561;SDS011;11959;49.418;8.728;2023-12-29T08:17:10;3.58;;;2.40;;
23561;SDS011;11959;49.418;8.728;2023-12-29T08:19:36;4.28;;;2.47;;
23561;SDS011;11959;49.418;8.728;2023-12-29T08:22:02;3.67;;;2.20;;
23561;SDS011;11959;49.418;8.728;2023-12-29T08:24:27;3.92;;;2.75;;
23561;SDS011;11959;49.418;8.728;2023-12-29T08:26:53;5.38;;;3.20;;
23561;SDS011;11959;49.418;8.728;2023-12-29T08:29:19;3.28;;;2.50;;
23561;SDS011;11959;49.418;8.728;2023-12-29T08:31:44;3.30;;;2.47;;
23561;SDS011;11959;49.418;8.728;2023-12-29T08:34:11;3.58;;;2.40;;
23561;SDS011;11959;49.418;8.728;2023-12-29T08:36:37;3.38;;;2.88;;
23561;SDS011;11959;49.418;8.728;2023-12-29T08:39:03;3.38;;;2.33;;
23561;SDS011;11959;49.418;8.728;2023-12-29T08:41:28;3.35;;;2.33;;
23561;SDS011;11959;49.418;8.728;2023-12-29T08:43:54;3.70;;;2.97;;
23561;SDS011;11959;49.418;8.728;2023-12-29T08:46:19;3.97;;;3.08;;
23561;SDS011;11959;49.418;8.728;2023-12-29T08:48:45;5.00;;;3.28;;
23561;SDS011;11959;49.418;8.728;2023-12-29T08:51:11;4.93;;;3.53;;
23561;SDS011;11959;49.418;8.728;2023-12-29T08:53:37;5.50;;;3.63;;
23561;SDS011;11959;49.418;8.728;2023-12-29T08:56:03;5.38;;;3.20;;
23561;SDS011;11959;49.418;8.728;2023-12-29T08:58:29;4.95;;;3.40;;
23561;SDS011;11959;49.418;8.728;2023-12-29T09:00:56;4.80;;;3.33;;
23561;SDS011;11959;49.418;8.728;2023-12-29T09:03:22;4.65;;;3.72;;
23561;SDS011;11959;49.418;8.728;2023-12-29T09:05:47;4.38;;;3.65;;
23561;SDS011;11959;49.418;8.728;2023-12-29T09:08:13;3.95;;;3.17;;
23561;SDS011;11959;49.418;8.728;2023-12-29T09:10:39;4.32;;;3.47;;
23561;SDS011;11959;49.418;8.728;2023-12-29T09:13:05;5.47;;;3.65;;
23561;SDS011;11959;49.418;8.728;2023-12-29T09:15:30;4.90;;;3.78;;
23561;SDS011;11959;49.418;8.728;2023-12-29T09:17:57;5.05;;;3.60;;
23561;SDS011;11959;49.418;8.728;2023-12-29T09:20:22;4.43;;;3.45;;
23561;SDS011;11959;49.418;8.728;2023-12-29T09:22:48;4.88;;;3.83;;
23561;SDS011;11959;49.418;8.728;2023-12-29T09:25:14;4.82;;;3.20;;
23561;SDS011;11959;49.418;8.728;2023-12-29T09:27:40;4.53;;;3.45;;
23561;SDS011;11959;49.418;8.728;2023-12-29T09:30:05;5.32;;;4.00;;
23561;SDS011;11959;49.418;8.728;2023-12-29T09:32:32;4.55;;;3.30;;
23561;SDS011;11959;49.418;8.728;2023-12-29T09:34:57;5.65;;;3.63;;
23561;SDS011;11959;49.418;8.728;2023-12-29T09:37:23;4.63;;;3.45;;
23561;SDS011;11959;49.418;8.728;2023-12-29T09:39:49;4.15;;;3.47;;
23561;SDS011;11959;49.418;8.728;2023-12-29T09:42:19;5.90;;;3.80;;
23561;SDS011;11959;49.418;8.728;2023-12-29T09:44:49;3.90;;;2.95;;
23561;SDS011;11959;49.418;8.728;2023-12-29T09:47:22;4.30;;;2.88;;
23561;SDS011;11959;49.418;8.728;2023-12-29T09:49:49;4.38;;;3.10;;
23561;SDS011;11959;49.418;8.728;2023-12-29T09:52:18;4.95;;;2.90;;
23561;SDS011;11959;49.418;8.728;2023-12-29T09:54:46;4.10;;;2.85;;
23561;SDS011;11959;49.418;8.728;2023-12-29T09:57:16;4.90;;;2.63;;
23561;SDS011;11959;49.418;8.728;2023-12-29T09:59:43;3.67;;;2.80;;
23561;SDS011;11959;49.418;8.728;2023-12-29T10:02:14;3.45;;;2.60;;
23561;SDS011;11959;49.418;8.728;2023-12-29T10:04:43;3.15;;;2.75;;
23561;SDS011;11959;49.418;8.728;2023-12-29T10:07:10;3.63;;;2.75;;
23561;SDS011;11959;49.418;8.728;2023-12-29T10:09:42;4.63;;;2.85;;
23561;SDS011;11959;49.418;8.728;2023-12-29T10:12:10;4.07;;;2.97;;
23561;SDS011;11959;49.418;8.728;2023-12-29T10:14:39;3.70;;;2.63;;
23561;SDS011;11959;49.418;8.728;2023-12-29T10:17:18;3.92;;;2.70;;
23561;SDS011;11959;49.418;8.728;2023-12-29T10:20:11;3.53;;;2.67;;
23561;SDS011;11959;49.418;8.728;2023-12-29T10:22:48;3.83;;;2.40;;
23561;SDS011;11959;49.418;8.728;2023-12-29T10:25:25;2.95;;;2.30;;
23561;SDS011;11959;49.418;8.728;2023-12-29T10:27:50;3.78;;;2.97;;
23561;SDS011;11959;49.418;8.728;2023-12-29T10:30:17;3.17;;;2.70;;
23561;SDS011;11959;49.418;8.728;2023-12-29T10:32:43;3.60;;;2.70;;
23561;SDS011;11959;49.418;8.728;2023-12-29T10:35:15;3.93;;;2.70;;
23561;SDS011;11959;49.418;8.728;2023-12-29T10:37:41;5.65;;;2.95;;
23561;SDS011;11959;49.418;8.728;2023-12-29T10:40:07;3.67;;;2.70;;
23561;SDS011;11959;49.418;8.728;2023-12-29T10:42:33;3.92;;;2.97;;
23561;SDS011;11959;49.418;8.728;2023-12-29T10:45:06;3.90;;;2.30;;
23561;SDS011;11959;49.418;8.728;2023-12-29T10:47:33;5.22;;;2.97;;
23561;SDS011;11959;49.418;8.728;2023-12-29T10:50:01;3.22;;;2.60;;
23561;SDS011;11959;49.418;8.728;2023-12-29T10:52:29;2.97;;;2.25;;
23561;SDS011;11959;49.418;8.728;2023-12-29T10:55:04;3.90;;;2.40;;
23561;SDS011;11959;49.418;8.728;2023-12-29T10:57:34;3.20;;;2.65;;
23561;SDS011;11959;49.418;8.728;2023-12-29T11:00:00;4.30;;;2.60;;
23561;SDS011;11959;49.418;8.728;2023-12-29T11:02:26;3.22;;;2.38;;
23561;SDS011;11959;49.418;8.728;2023-12-29T11:05:03;3.92;;;2.63;;
23561;SDS011;11959;49.418;8.728;2023-12-29T11:07:31;3.22;;;2.22;;
23561;SDS011;11959;49.418;8.728;2023-12-29T11:10:00;6.63;;;2.38;;
23561;SDS011;11959;49.418;8.728;2023-12-29T11:12:28;3.63;;;2.58;;
23561;SDS011;11959;49.418;8.728;2023-12-29T11:14:59;2.85;;;2.10;;
23561;SDS011;11959;49.418;8.728;2023-12-29T11:17:26;3.10;;;2.53;;
23561;SDS011;11959;49.418;8.728;2023-12-29T11:19:54;3.20;;;2.22;;
23561;SDS011;11959;49.418;8.728;2023-12-29T11:22:20;3.65;;;2.50;;
23561;SDS011;11959;49.418;8.728;2023-12-29T11:24:47;3.20;;;2.53;;
23561;SDS011;11959;49.418;8.728;2023-12-29T11:27:14;3.63;;;2.28;;
23561;SDS011;11959;49.418;8.728;2023-12-29T11:29:41;3.15;;;2.40;;
23561;SDS011;11959;49.418;8.728;2023-12-29T11:32:11;2.78;;;1.92;;
23561;SDS011;11959;49.418;8.728;2023-12-29T11:34:42;4.53;;;2.28;;
23561;SDS011;11959;49.418;8.728;2023-12-29T11:37:17;3.20;;;2.20;;
23561;SDS011;11959;49.418;8.728;2023-12-29T11:39:56;2.97;;;2.10;;
23561;SDS011;11959;49.418;8.728;2023-12-29T11:42:27;3.25;;;1.90;;
23561;SDS011;11959;49.418;8.728;2023-12-29T11:44:59;3.38;;;1.80;;
23561;SDS011;11959;49.418;8.728;2023-12-29T11:47:57;2.65;;;2.00;;
23561;SDS011;11959;49.418;8.728;2023-12-29T11:50:27;3.47;;;1.77;;
23561;SDS011;11959;49.418;8.728;2023-12-29T11:53:02;2.53;;;2.13;;
23561;SDS011;11959;49.418;8.728;2023-12-29T11:55:30;3.88;;;1.92;;
23561;SDS011;11959;49.418;8.728;2023-12-29T11:57:58;4.28;;;2.00;;
23561;SDS011;11959;49.418;8.728;2023-12-29T12:00:40;1.92;;;1.73;;
23561;SDS011;11959;49.418;8.728;2023-12-29T12:03:13;3.25;;;1.60;;
23561;SDS011;11959;49.418;8.728;2023-12-29T12:05:45;2.42;;;1.67;;
23561;SDS011;11959;49.418;8.728;2023-12-29T12:08:32;2.80;;;1.50;;
23561;SDS011;11959;49.418;8.728;2023-12-29T12:13:54;3.10;;;1.90;;
23561;SDS011;11959;49.418;8.728;2023-12-29T12:19:12;3.45;;;1.50;;
23561;SDS011;11959;49.418;8.728;2023-12-29T12:21:38;2.47;;;1.23;;
23561;SDS011;11959;49.418;8.728;2023-12-29T12:24:05;2.85;;;1.38;;
23561;SDS011;11959;49.418;8.728;2023-12-29T12:26:31;2.83;;;1.50;;
23561;SDS011;11959;49.418;8.728;2023-12-29T12:28:57;2.33;;;1.40;;
23561;SDS011;11959;49.418;8.728;2023-12-29T12:31:24;2.20;;;1.42;;
23561;SDS011;11959;49.418;8.728;2023-12-29T12:33:53;1.33;;;1.20;;
23561;SDS011;11959;49.418;8.728;2023-12-29T12:36:20;2.25;;;1.40;;
23561;SDS011;11959;49.418;8.728;2023-12-29T12:41:18;1.63;;;1.40;;
23561;SDS011;11959;49.418;8.728;2023-12-29T12:43:48;2.63;;;1.50;;
23561;SDS011;11959;49.418;8.728;2023-12-29T12:46:33;2.63;;;1.40;;
23561;SDS011;11959;49.418;8.728;2023-12-29T12:49:02;1.52;;;1.30;;
23561;SDS011;11959;49.418;8.728;2023-12-29T12:51:30;2.13;;;1.55;;
23561;SDS011;11959;49.418;8.728;2023-12-29T12:53:57;2.22;;;1.20;;
23561;SDS011;11959;49.418;8.728;2023-12-29T12:56:23;1.90;;;1.75;;
23561;SDS011;11959;49.418;8.728;2023-12-29T12:58:52;2.97;;;1.70;;
23561;SDS011;11959;49.418;8.728;2023-12-29T13:01:20;2.30;;;1.58;;
23561;SDS011;11959;49.418;8.728;2023-12-29T13:03:46;3.60;;;1.92;;
23561;SDS011;11959;49.418;8.728;2023-12-29T13:06:12;2.50;;;1.90;;
23561;SDS011;11959;49.418;8.728;2023-12-29T13:08:38;2.70;;;1.80;;
23561;SDS011;11959;49.418;8.728;2023-12-29T13:11:04;4.35;;;2.20;;
23561;SDS011;11959;49.418;8.728;2023-12-29T13:13:37;3.28;;;2.38;;
23561;SDS011;11959;49.418;8.728;2023-12-29T13:16:03;6.03;;;1.85;;
23561;SDS011;11959;49.418;8.728;2023-12-29T13:18:29;1.85;;;1.40;;
23561;SDS011;11959;49.418;8.728;2023-12-29T13:20:59;1.80;;;1.55;;
23561;SDS011;11959;49.418;8.728;2023-12-29T13:23:29;2.90;;;1.67;;
23561;SDS011;11959;49.418;8.728;2023-12-29T13:25:57;2.65;;;1.85;;
23561;SDS011;11959;49.418;8.728;2023-12-29T13:28:25;4.65;;;1.95;;
23561;SDS011;11959;49.418;8.728;2023-12-29T13:30:52;2.83;;;1.95;;
23561;SDS011;11959;49.418;8.728;2023-12-29T13:39:03;4.13;;;2.13;;
23561;SDS011;11959;49.418;8.728;2023-12-29T13:41:40;2.95;;;2.10;;
23561;SDS011;11959;49.418;8.728;2023-12-29T13:44:07;2.67;;;1.75;;
23561;SDS011;11959;49.418;8.728;2023-12-29T13:46:33;3.47;;;1.92;;
23561;SDS011;11959;49.418;8.728;2023-12-29T13:49:00;2.53;;;1.63;;
23561;SDS011;11959;49.418;8.728;2023-12-29T13:51:27;2.60;;;2.00;;
23561;SDS011;11959;49.418;8.728;2023-12-29T13:53:59;2.83;;;1.90;;
23561;SDS011;11959;49.418;8.728;2023-12-29T13:56:26;2.47;;;2.03;;
23561;SDS011;11959;49.418;8.728;2023-12-29T13:58:51;2.30;;;1.80;;
23561;SDS011;11959;49.418;8.728;2023-12-29T14:01:17;3.20;;;2.10;;
23561;SDS011;11959;49.418;8.728;2023-12-29T14:03:47;3.85;;;2.40;;
23561;SDS011;11959;49.418;8.728;2023-12-29T14:06:27;5.22;;;4.32;;
23561;SDS011;11959;49.418;8.728;2023-12-29T14:09:28;5.85;;;3.05;;
23561;SDS011;11959;49.418;8.728;2023-12-29T14:11:54;5.85;;;2.65;;
23561;SDS011;11959;49.418;8.728;2023-12-29T14:14:24;3.33;;;2.28;;
23561;SDS011;11959;49.418;8.728;2023-12-29T14:16:50;3.00;;;2.13;;
23561;SDS011;11959;49.418;8.728;2023-12-29T14:19:19;3.55;;;2.10;;
23561;SDS011;11959;49.418;8.728;2023-12-29T14:21:46;4.15;;;2.20;;
23561;SDS011;11959;49.418;8.728;2023-12-29T14:24:16;2.97;;;2.33;;
23561;SDS011;11959;49.418;8.728;2023-12-29T14:29:17;2.15;;;1.63;;
23561;SDS011;11959;49.418;8.728;2023-12-29T14:31:43;4.22;;;1.80;;
23561;SDS011;11959;49.418;8.728;2023-12-29T14:34:10;1.58;;;1.42;;
23561;SDS011;11959;49.418;8.728;2023-12-29T14:36:36;3.70;;;2.20;;
23561;SDS011;11959;49.418;8.728;2023-12-29T14:39:04;3.97;;;2.50;;
23561;SDS011;11959;49.418;8.728;2023-12-29T14:41:31;3.15;;;1.90;;
23561;SDS011;11959;49.418;8.728;2023-12-29T14:43:57;2.92;;;1.77;;
23561;SDS011;11959;49.418;8.728;2023-12-29T14:46:23;2.85;;;2.03;;
23561;SDS011;11959;49.418;8.728;2023-12-29T14:48:49;3.92;;;2.00;;
23561;SDS011;11959;49.418;8.728;2023-12-29T14:51:15;3.65;;;1.95;;
23561;SDS011;11959;49.418;8.728;2023-12-29T14:53:47;3.08;;;1.45;;
23561;SDS011;11959;49.418;8.728;2023-12-29T14:58:40;4.93;;;2.35;;
23561;SDS011;11959;49.418;8.728;2023-12-29T15:01:06;4.35;;;2.65;;
23561;SDS011;11959;49.418;8.728;2023-12-29T15:03:33;3.65;;;3.15;;
23561;SDS011;11959;49.418;8.728;2023-12-29T15:05:59;5.53;;;2.85;;
23561;SDS011;11959;49.418;8.728;2023-12-29T15:08:25;2.63;;;2.20;;